Time;durP1;ratioP1;P1;durP2;ratioP2;P2;SDS_P1;SDS_P2;PMS_P1;PMS_P2;Temp;Humidity;BMP_temperature;BMP_pressure;BME280_temperature;BME280_humidity;BME280_pressure;Samples;Min_cycle;Max_cycle;Signal;HPM_P1;HPM_P2
2021/10/19 00:01:49;;;;;;;5.83;5.23;;;;;;;20.73;66.03;98219.13;5008950;28;20750;-69
2021/10/19 00:04:16;;;;;;;6.63;5.77;;;;;;;21.39;66.30;98331.94;5027582;28;20455;-69
2021/10/19 00:06:43;;;;;;;5.80;5.20;;;;;;;21.19;66.14;98296.97;5030082;28;20197;-67
2021/10/19 00:09:09;;;;;;;5.87;5.20;;;;;;;21.37;66.24;98318.22;4994164;28;20729;-67
2021/10/19 00:11:36;;;;;;;6.03;5.43;;;;;;;21.19;66.26;98292.75;5029334;28;20513;-64
2021/10/19 00:14:02;;;;;;;5.70;5.20;;;;;;;21.06;66.09;98272.59;5021886;28;20255;-69
2021/10/19 00:16:29;;;;;;;6.20;5.60;;;;;;;21.39;65.96;98327.72;4991887;28;20268;-68
2021/10/19 00:18:56;;;;;;;6.13;5.53;;;;;;;21.22;66.09;98304.78;4993635;28;20233;-67
2021/10/19 00:21:22;;;;;;;6.17;5.57;;;;;;;21.30;66.32;98318.78;5007549;28;20734;-67
2021/10/19 00:23:49;;;;;;;5.63;5.07;;;;;;;21.36;65.94;98326.69;5026464;28;20245;-68
2021/10/19 00:26:15;;;;;;;6.00;5.40;;;;;;;21.36;66.11;98322.47;5029631;28;20225;-67
2021/10/19 00:28:42;;;;;;;5.80;5.30;;;;;;;21.38;65.99;98333.63;5025941;28;20734;-67
2021/10/19 00:31:09;;;;;;;6.13;5.50;;;;;;;21.17;66.12;98294.34;5022991;28;20236;-66
2021/10/19 00:33:35;;;;;;;5.30;4.80;;;;;;;21.40;66.30;98337.13;5025030;28;20205;-67
2021/10/19 00:36:02;;;;;;;5.83;5.23;;;;;;;21.40;66.33;98333.69;5009871;28;20324;-69
2021/10/19 00:38:28;;;;;;;5.63;5.13;;;;;;;21.32;66.27;98324.84;5029807;28;20240;-66
2021/10/19 00:40:55;;;;;;;6.00;5.40;;;;;;;21.33;66.46;98326.56;5037510;28;20203;-66
2021/10/19 00:43:23;;;;;;;5.50;5.00;;;;;;;21.36;66.14;98337.81;5012463;28;20193;-66
2021/10/19 00:45:50;;;;;;;7.00;5.10;;;;;;;21.42;66.23;98352.53;5004556;28;20222;-67
2021/10/19 00:48:17;;;;;;;5.47;4.97;;;;;;;21.35;66.21;98337.75;5010291;28;20198;-67
2021/10/19 00:50:44;;;;;;;4.90;4.50;;;;;;;21.27;66.31;98329.75;5023483;28;20236;-66
2021/10/19 00:53:11;;;;;;;6.07;5.47;;;;;;;21.33;66.24;98326.56;5041121;28;20240;-67
2021/10/19 00:55:38;;;;;;;5.93;5.43;;;;;;;20.95;66.29;98262.69;5011163;28;20280;-65
2021/10/19 00:58:07;;;;;;;6.03;5.43;;;;;;;21.37;66.32;98328.44;5027442;28;20624;-67
2021/10/19 01:00:34;;;;;;;5.90;5.30;;;;;;;21.18;66.76;98300.34;5024073;28;20625;-67
2021/10/19 01:03:01;;;;;;;5.67;5.10;;;;;;;21.24;66.40;98304.06;5030947;28;20213;-66
2021/10/19 01:05:27;;;;;;;5.57;5.07;;;;;;;21.21;66.52;98296.25;5029805;28;20249;-68
2021/10/19 01:07:54;;;;;;;5.67;5.10;;;;;;;21.39;66.40;98330.28;5023550;28;20230;-67
2021/10/19 01:10:21;;;;;;;5.70;5.10;;;;;;;21.30;66.04;98303.44;5014263;28;20205;-68
2021/10/19 01:12:47;;;;;;;5.27;4.77;;;;;;;21.39;66.12;98322.59;5012256;28;20241;-67
2021/10/19 01:15:16;;;;;;;5.47;4.97;;;;;;;21.41;66.27;98323.53;5019840;28;20638;-67
2021/10/19 01:17:44;;;;;;;6.10;5.27;;;;;;;21.26;66.25;98293.91;5030927;28;20237;-67
2021/10/19 01:20:25;;;;;;;6.53;5.07;;;;;;;21.38;66.31;98315.72;5031596;28;20225;-68
2021/10/19 01:22:55;;;;;;;5.63;5.13;;;;;;;21.38;66.33;98312.31;5031593;28;20285;-67
2021/10/19 01:25:23;;;;;;;5.93;5.33;;;;;;;21.40;66.54;98313.22;5031029;28;20237;-66
2021/10/19 01:27:58;;;;;;;6.07;5.47;;;;;;;21.39;66.41;98312.38;5032217;28;20205;-67
2021/10/19 01:30:25;;;;;;;5.73;5.23;;;;;;;21.28;66.38;98279.47;5036531;28;20233;-67
2021/10/19 01:32:52;;;;;;;5.83;5.30;;;;;;;21.30;66.29;98288.09;5014049;28;20225;-67
2021/10/19 01:35:19;;;;;;;6.63;5.07;;;;;;;21.40;66.33;98297.88;5010466;28;20226;-67
2021/10/19 01:37:45;;;;;;;5.67;5.17;;;;;;;21.40;66.24;98295.31;5029871;28;20228;-68
2021/10/19 01:40:13;;;;;;;5.57;5.00;;;;;;;21.40;66.25;98293.66;5029354;28;20225;-69
2021/10/19 01:42:40;;;;;;;6.10;5.50;;;;;;;21.41;66.39;98292.84;5030864;28;20237;-68
2021/10/19 01:45:16;;;;;;;5.67;4.97;;;;;;;21.32;66.43;98274.56;5026585;28;20309;-67
2021/10/19 01:47:44;;;;;;;5.40;4.90;;;;;;;20.91;66.25;98190.13;5045458;28;20240;-66
2021/10/19 01:50:11;;;;;;;5.83;5.23;;;;;;;21.30;66.53;98262.53;5043206;28;20226;-67
2021/10/19 01:52:38;;;;;;;6.20;5.60;;;;;;;21.14;66.45;98244.81;5028687;28;20642;-67
2021/10/19 01:55:05;;;;;;;6.13;5.53;;;;;;;21.36;66.74;98283.22;5013716;28;20255;-68
2021/10/19 01:57:32;;;;;;;5.47;4.97;;;;;;;21.06;66.87;98230.81;5030624;28;20316;-67
2021/10/19 01:59:58;;;;;;;5.97;5.37;;;;;;;21.37;67.01;98285.84;5030869;28;20249;-66
2021/10/19 02:02:25;;;;;;;5.90;5.30;;;;;;;21.37;66.51;98290.09;5031271;28;20280;-68
2021/10/19 02:04:52;;;;;;;5.70;5.20;;;;;;;21.18;66.57;98256.91;5029944;28;20702;-66
2021/10/19 02:07:19;;;;;;;5.60;5.10;;;;;;;21.36;66.55;98291.78;5024736;28;20195;-66
2021/10/19 02:09:45;;;;;;;5.70;5.20;;;;;;;21.37;66.47;98283.31;5029255;28;20292;-67
2021/10/19 02:12:12;;;;;;;5.97;5.40;;;;;;;21.20;66.60;98256.13;5030307;28;20205;-68
2021/10/19 02:14:38;;;;;;;5.03;4.53;;;;;;;21.33;66.32;98280.56;5030794;28;20268;-66
2021/10/19 02:17:05;;;;;;;5.30;4.80;;;;;;;21.23;66.50;98269.06;5010535;28;20299;-66
2021/10/19 02:19:32;;;;;;;4.87;4.47;;;;;;;21.07;66.36;98245.34;5027865;28;20701;-67
2021/10/19 02:21:58;;;;;;;7.67;4.97;;;;;;;21.39;66.42;98291.03;5011680;28;20529;-67
2021/10/19 02:24:25;;;;;;;5.67;5.17;;;;;;;21.37;66.45;98293.53;5030782;28;20245;-67
2021/10/19 02:26:51;;;;;;;5.10;4.60;;;;;;;21.22;66.40;98264.75;5029715;28;20276;-67
2021/10/19 02:29:18;;;;;;;5.07;4.60;;;;;;;21.39;66.69;98296.16;5030513;28;20620;-67
2021/10/19 02:31:45;;;;;;;5.00;4.60;;;;;;;21.37;66.54;98298.63;5030062;28;20454;-67
2021/10/19 02:34:11;;;;;;;5.23;4.73;;;;;;;21.13;66.50;98245.59;5030430;28;20293;-67
2021/10/19 02:36:38;;;;;;;5.50;4.83;;;;;;;21.25;66.50;98266.56;5038578;28;20658;-67
2021/10/19 02:39:06;;;;;;;5.60;5.10;;;;;;;21.17;66.51;98258.56;5020967;28;20225;-67
2021/10/19 02:41:33;;;;;;;5.43;4.93;;;;;;;20.55;66.31;98157.94;5028888;28;20645;-67
2021/10/19 02:44:00;;;;;;;5.30;4.80;;;;;;;21.35;66.63;98300.25;5030690;28;20221;-68
2021/10/19 02:46:28;;;;;;;6.23;5.57;;;;;;;21.24;66.60;98278.50;5028087;28;20221;-67
2021/10/19 02:48:55;;;;;;;6.07;5.03;;;;;;;21.34;66.58;98298.50;5029346;28;20244;-67
2021/10/19 02:51:22;;;;;;;5.17;4.67;;;;;;;20.90;67.03;98202.84;5027314;28;20225;-67
2021/10/19 02:53:48;;;;;;;5.23;4.73;;;;;;;21.34;66.72;98275.50;5022697;28;20241;-67
2021/10/19 02:56:15;;;;;;;5.43;4.93;;;;;;;21.23;66.84;98263.94;5029917;28;20213;-67
2021/10/19 02:58:41;;;;;;;5.27;4.80;;;;;;;19.89;66.71;98030.78;5028221;28;20201;-68
2021/10/19 03:01:08;;;;;;;5.07;4.63;;;;;;;21.36;66.64;98283.22;5030194;28;20228;-67
2021/10/19 03:03:35;;;;;;;4.53;4.13;;;;;;;21.14;66.77;98252.47;5029142;28;20288;-68
2021/10/19 03:06:01;;;;;;;5.10;4.60;;;;;;;20.49;66.03;98141.47;5029735;28;20260;-68
2021/10/19 03:08:28;;;;;;;5.20;4.70;;;;;;;21.35;66.44;98297.69;5013413;28;20216;-67
2021/10/19 03:10:54;;;;;;;5.00;4.60;;;;;;;21.13;66.84;98254.16;5038786;28;20225;-67
2021/10/19 03:13:21;;;;;;;5.10;4.60;;;;;;;21.05;66.67;98229.94;5011443;28;20202;-68
2021/10/19 03:16:08;;;;;;;4.70;4.30;;;;;;;21.35;66.95;98272.13;5028405;28;20618;-69
2021/10/19 03:18:34;;;;;;;5.17;4.53;;;;;;;21.26;66.31;98250.44;5011996;28;20209;-66
2021/10/19 03:21:04;;;;;;;4.90;4.50;;;;;;;21.26;66.71;98253.84;5024127;28;20256;-67
2021/10/19 03:23:31;;;;;;;4.80;4.40;;;;;;;21.17;66.33;98225.34;5029886;28;20255;-67
2021/10/19 03:25:57;;;;;;;4.27;3.93;;;;;;;21.35;66.77;98261.88;5029005;28;20305;-67
2021/10/19 03:28:24;;;;;;;4.73;4.33;;;;;;;21.35;66.99;98268.72;5035351;28;20535;-67
2021/10/19 03:30:50;;;;;;;4.63;4.23;;;;;;;21.02;66.68;98221.28;5030011;28;20229;-70
2021/10/19 03:33:17;;;;;;;4.77;4.37;;;;;;;21.34;66.28;98274.63;5012794;28;20297;-67
2021/10/19 03:35:43;;;;;;;4.90;4.50;;;;;;;21.27;66.70;98264.94;5008042;28;20626;-67
2021/10/19 03:38:10;;;;;;;4.60;4.20;;;;;;;21.34;66.64;98269.50;5020100;28;20698;-66
2021/10/19 03:40:37;;;;;;;5.37;4.87;;;;;;;21.03;66.83;98207.69;5023002;28;20202;-68
2021/10/19 03:43:05;;;;;;;4.87;4.47;;;;;;;21.17;66.80;98238.13;5023241;28;20256;-67
2021/10/19 03:45:32;;;;;;;4.93;4.53;;;;;;;20.64;66.91;98173.63;5011649;28;20217;-66
2021/10/19 03:47:58;;;;;;;4.97;4.57;;;;;;;21.26;67.17;98281.13;5028109;28;20221;-67
2021/10/19 03:50:25;;;;;;;4.47;4.03;;;;;;;21.34;66.98;98295.06;4988845;28;20194;-66
2021/10/19 03:52:57;;;;;;;4.73;4.33;;;;;;;21.32;67.02;98294.16;5023609;28;20232;-66
2021/10/19 03:55:24;;;;;;;4.70;4.30;;;;;;;21.19;66.89;98267.19;5019210;28;20287;-68
2021/10/19 03:57:51;;;;;;;5.00;4.57;;;;;;;21.25;67.36;98274.22;5025832;28;20217;-66
2021/10/19 04:00:17;;;;;;;4.60;4.10;;;;;;;21.34;67.17;98293.41;5013446;28;20202;-66
2021/10/19 04:02:44;;;;;;;4.40;4.00;;;;;;;21.27;66.39;98282.84;4995026;28;20205;-69
2021/10/19 04:05:11;;;;;;;5.17;4.73;;;;;;;20.96;67.16;98234.66;5003948;28;20289;-68
2021/10/19 04:07:44;;;;;;;5.83;4.70;;;;;;;21.14;67.04;98267.81;5039153;28;20259;-67
2021/10/19 04:10:11;;;;;;;5.10;4.70;;;;;;;20.91;67.37;98225.91;4998869;28;20606;-69
2021/10/19 04:12:38;;;;;;;4.70;4.30;;;;;;;21.06;67.13;98244.47;5030464;28;20613;-67
2021/10/19 04:15:05;;;;;;;5.10;4.60;;;;;;;21.25;67.23;98266.56;5014272;28;20225;-69
2021/10/19 04:17:32;;;;;;;4.60;4.20;;;;;;;21.36;66.97;98290.91;5028190;28;20748;-67
2021/10/19 04:19:59;;;;;;;4.60;4.20;;;;;;;21.24;66.90;98275.94;5028864;28;20237;-67
2021/10/19 04:22:25;;;;;;;4.70;4.30;;;;;;;21.36;66.53;98304.56;5029747;28;20233;-69
2021/10/19 04:24:54;;;;;;;4.90;4.50;;;;;;;21.35;66.23;98302.81;5028405;28;20245;-67
2021/10/19 04:27:21;;;;;;;4.50;4.10;;;;;;;21.00;66.82;98253.56;5008513;28;20256;-68
2021/10/19 04:29:48;;;;;;;4.27;3.90;;;;;;;21.34;66.76;98324.09;5014060;28;20241;-68
2021/10/19 04:32:14;;;;;;;4.87;4.47;;;;;;;21.35;66.90;98328.38;5030989;28;20280;-68
2021/10/19 04:34:41;;;;;;;4.60;4.20;;;;;;;21.07;66.83;98292.22;5032124;28;20287;-68
2021/10/19 04:37:07;;;;;;;4.97;4.47;;;;;;;21.04;66.67;98274.19;5028629;28;20213;-68
2021/10/19 04:39:35;;;;;;;5.10;4.63;;;;;;;21.27;66.79;98319.53;5034621;28;20280;-67
2021/10/19 04:42:02;;;;;;;5.07;4.67;;;;;;;21.35;66.87;98327.53;5037053;28;21540;-67
2021/10/19 04:44:28;;;;;;;4.37;3.97;;;;;;;21.26;66.56;98304.97;5032709;28;20304;-68
2021/10/19 04:46:55;;;;;;;4.67;4.17;;;;;;;21.31;66.71;98312.84;5013097;28;20221;-67
2021/10/19 04:49:22;;;;;;;4.57;4.17;;;;;;;21.27;66.58;98293.06;5015124;28;20206;-69
2021/10/19 04:51:48;;;;;;;4.73;4.23;;;;;;;21.29;66.71;98292.31;5033180;28;20240;-67
2021/10/19 04:54:15;;;;;;;4.87;4.17;;;;;;;21.33;66.67;98288.22;5016242;28;20229;-68
2021/10/19 04:56:41;;;;;;;4.50;4.17;;;;;;;21.37;66.97;98295.19;5028508;28;20293;-69
2021/10/19 04:59:08;;;;;;;4.30;3.93;;;;;;;21.27;66.37;98281.19;5027339;28;20564;-68
2021/10/19 05:01:34;;;;;;;4.27;3.90;;;;;;;21.36;66.82;98299.47;5011135;28;20233;-68
2021/10/19 05:04:01;;;;;;;5.00;4.10;;;;;;;21.35;66.55;98301.94;5028185;28;20205;-66
2021/10/19 05:06:28;;;;;;;5.63;4.37;;;;;;;21.35;66.94;98290.03;5016124;28;20201;-67
2021/10/19 05:08:55;;;;;;;3.90;3.60;;;;;;;21.33;66.62;98290.78;5034166;28;20256;-68
2021/10/19 05:11:21;;;;;;;4.03;3.50;;;;;;;21.33;66.50;98288.22;5027383;28;20241;-68
2021/10/19 05:13:48;;;;;;;4.33;3.93;;;;;;;21.31;66.70;98277.94;5031814;28;20202;-67
2021/10/19 05:16:14;;;;;;;4.40;4.00;;;;;;;21.36;66.60;98285.78;5040583;22;20642;-62
2021/10/19 05:18:41;;;;;;;4.37;4.00;;;;;;;21.35;66.47;98286.63;5013620;28;20392;-62
2021/10/19 05:21:08;;;;;;;4.47;4.07;;;;;;;21.36;66.58;98293.47;5013376;28;20230;-62
2021/10/19 05:23:34;;;;;;;4.30;3.90;;;;;;;21.34;66.75;98285.72;5017329;28;20285;-62
2021/10/19 05:26:01;;;;;;;5.07;4.60;;;;;;;21.35;66.04;98289.16;5016980;28;20788;-62
2021/10/19 05:28:27;;;;;;;7.07;6.47;;;;;;;21.35;65.29;98282.34;5021752;28;20206;-62
2021/10/19 05:30:54;;;;;;;7.93;7.23;;;;;;;21.34;63.39;98283.16;5020571;28;20233;-62
2021/10/19 05:33:20;;;;;;;9.37;8.47;;;;;;;21.34;62.08;98278.06;5019939;28;20292;-62
2021/10/19 05:35:48;;;;;;;10.30;8.87;;;;;;;21.34;60.94;98269.50;5023047;28;20313;-63
2021/10/19 05:38:14;;;;;;;9.47;8.67;;;;;;;21.33;60.03;98263.53;5015978;28;20249;-62
2021/10/19 05:40:41;;;;;;;9.43;8.63;;;;;;;21.32;58.83;98263.47;5021635;28;20578;-62
2021/10/19 05:43:07;;;;;;;9.77;8.97;;;;;;;21.31;58.43;98259.16;5011807;28;20229;-62
2021/10/19 05:45:35;;;;;;;10.10;9.20;;;;;;;21.31;57.75;98266.81;5021750;28;20224;-62
2021/10/19 05:48:02;;;;;;;9.03;8.23;;;;;;;21.29;58.11;98258.22;5021073;28;20204;-62
2021/10/19 05:50:28;;;;;;;10.20;9.23;;;;;;;21.28;58.68;98265.00;5016545;28;20660;-62
2021/10/19 05:52:55;;;;;;;9.57;8.67;;;;;;;21.28;58.84;98274.34;5020631;28;20292;-63
2021/10/19 05:55:21;;;;;;;9.50;8.60;;;;;;;21.28;58.75;98271.81;5015854;28;20651;-62
2021/10/19 05:57:48;;;;;;;8.93;8.13;;;;;;;21.28;59.44;98266.69;5016338;28;20330;-62
2021/10/19 06:00:14;;;;;;;9.20;8.40;;;;;;;21.27;59.76;98262.41;5015833;28;20721;-62
2021/10/19 06:02:41;;;;;;;8.10;7.40;;;;;;;21.27;59.82;98260.72;5018446;28;20289;-62
2021/10/19 06:05:08;;;;;;;8.93;8.03;;;;;;;21.27;60.51;98265.84;5016447;28;20217;-62
2021/10/19 06:07:34;;;;;;;8.60;7.90;;;;;;;21.27;61.21;98278.63;5016457;28;20285;-62
2021/10/19 06:10:02;;;;;;;8.43;7.73;;;;;;;21.27;60.99;98270.06;5023217;28;20222;-62
2021/10/19 06:12:28;;;;;;;7.63;6.93;;;;;;;21.27;61.54;98258.16;5016368;28;20244;-62
2021/10/19 06:14:55;;;;;;;8.80;7.47;;;;;;;21.28;61.41;98264.13;5024566;28;20309;-62
2021/10/19 06:17:22;;;;;;;8.00;7.30;;;;;;;21.27;61.21;98275.19;5018883;28;20652;-63
2021/10/19 06:19:48;;;;;;;8.20;7.40;;;;;;;21.28;61.52;98274.34;5017241;28;20256;-62
2021/10/19 06:22:15;;;;;;;7.23;6.63;;;;;;;21.29;61.66;98294.03;5015335;28;20195;-62
2021/10/19 06:24:42;;;;;;;7.77;7.07;;;;;;;21.29;61.69;98283.81;5017153;28;20256;-63
2021/10/19 06:27:08;;;;;;;7.33;6.73;;;;;;;21.29;61.88;98304.25;5016660;28;20305;-62
2021/10/19 06:29:35;;;;;;;7.03;6.43;;;;;;;21.29;62.13;98306.81;5017107;28;20305;-62
2021/10/19 06:32:01;;;;;;;7.50;6.83;;;;;;;21.30;62.18;98306.88;5023425;28;20249;-62
2021/10/19 06:34:28;;;;;;;10.00;8.83;;;;;;;21.29;59.46;98305.09;5019276;28;20229;-63
2021/10/19 06:36:54;;;;;;;11.37;8.83;;;;;;;21.28;58.30;98312.72;5018317;28;20241;-62
2021/10/19 06:39:21;;;;;;;13.13;8.10;;;;;;;21.28;58.14;98315.25;5021483;28;20309;-62
2021/10/19 06:41:48;;;;;;;9.03;8.13;;;;;;;21.27;59.05;98322.09;5016507;28;20233;-62
2021/10/19 06:44:16;;;;;;;9.07;8.27;;;;;;;21.28;59.16;98317.81;5023826;28;20606;-62
2021/10/19 06:47:03;;;;;;;8.73;7.90;;;;;;;21.27;59.59;98327.19;5015363;28;20225;-62
2021/10/19 06:49:29;;;;;;;8.50;7.70;;;;;;;21.28;60.01;98328.94;5025228;28;20248;-61
2021/10/19 06:51:56;;;;;;;8.63;7.77;;;;;;;21.27;59.96;98314.41;5016293;28;20240;-62
2021/10/19 06:54:22;;;;;;;8.03;7.23;;;;;;;21.28;60.46;98317.81;5014863;28;20559;-62
2021/10/19 06:56:49;;;;;;;8.53;7.63;;;;;;;21.26;60.06;98317.75;5022395;28;20611;-62
2021/10/19 06:59:15;;;;;;;8.00;7.30;;;;;;;21.27;60.57;98319.53;5014849;28;20665;-63
2021/10/19 07:01:42;;;;;;;8.40;7.60;;;;;;;21.27;60.62;98321.19;5024704;28;20289;-62
2021/10/19 07:04:09;;;;;;;7.43;6.73;;;;;;;21.26;60.44;98324.56;5014896;28;20213;-62
2021/10/19 07:06:35;;;;;;;8.47;7.70;;;;;;;21.26;59.52;98325.44;5025157;28;20252;-62
2021/10/19 07:09:02;;;;;;;11.93;8.93;;;;;;;21.25;57.94;98327.91;5015301;28;20203;-62
2021/10/19 07:11:30;;;;;;;10.17;8.70;;;;;;;21.23;57.03;98325.28;5014792;28;20202;-62
2021/10/19 07:13:56;;;;;;;9.63;8.73;;;;;;;21.24;57.27;98318.50;5016615;28;20198;-62
2021/10/19 07:16:23;;;;;;;9.67;8.77;;;;;;;21.23;57.71;98321.88;5022282;28;20230;-62
2021/10/19 07:18:54;;;;;;;9.13;8.33;;;;;;;21.24;57.71;98323.63;5015769;28;20769;-62
2021/10/19 07:21:20;;;;;;;8.77;7.90;;;;;;;21.24;58.24;98327.06;5013242;28;20226;-62
2021/10/19 07:23:47;;;;;;;8.83;7.97;;;;;;;21.23;58.55;98327.84;5013029;28;20206;-62
2021/10/19 07:26:13;;;;;;;8.60;7.77;;;;;;;21.23;59.03;98335.53;5012083;28;20301;-62
2021/10/19 07:28:40;;;;;;;9.67;7.20;;;;;;;21.24;59.57;98339.84;5014324;28;20264;-62
2021/10/19 07:31:07;;;;;;;10.40;7.43;;;;;;;21.25;59.40;98338.16;5014562;28;20226;-62
2021/10/19 07:33:33;;;;;;;8.30;7.10;;;;;;;21.24;59.44;98342.41;5013957;28;20241;-62
2021/10/19 07:36:00;;;;;;;7.33;6.63;;;;;;;21.26;59.66;98339.91;5014046;28;20309;-62
2021/10/19 07:38:26;;;;;;;8.07;7.27;;;;;;;21.26;59.68;98339.91;5017668;28;20249;-62
2021/10/19 07:40:53;;;;;;;7.60;6.90;;;;;;;21.25;59.98;98346.69;5016778;28;20662;-62
2021/10/19 07:43:20;;;;;;;7.17;6.47;;;;;;;21.25;60.16;98346.69;5018295;28;20668;-62
2021/10/19 07:45:47;;;;;;;7.50;6.80;;;;;;;21.26;60.40;98356.09;5015513;28;20218;-62
2021/10/19 07:48:13;;;;;;;7.20;6.40;;;;;;;21.26;60.42;98345.88;5019787;28;20269;-62
2021/10/19 07:50:44;;;;;;;7.10;6.50;;;;;;;21.25;60.57;98349.25;5017766;28;20726;-62
2021/10/19 07:53:11;;;;;;;7.30;6.60;;;;;;;21.25;60.37;98348.38;5011539;28;20195;-62
2021/10/19 07:55:37;;;;;;;6.83;6.20;;;;;;;21.25;60.44;98354.38;5018077;28;20306;-62
2021/10/19 07:58:04;;;;;;;6.83;6.23;;;;;;;21.26;60.71;98351.00;5014379;28;20268;-62
2021/10/19 08:00:31;;;;;;;6.83;6.23;;;;;;;21.25;60.79;98362.03;5018937;28;20251;-62
2021/10/19 08:02:57;;;;;;;6.43;5.87;;;;;;;21.26;60.88;98361.22;5016955;28;20198;-62
2021/10/19 08:05:24;;;;;;;6.37;5.77;;;;;;;21.27;60.95;98368.09;5018722;28;20221;-62
2021/10/19 08:07:52;;;;;;;6.57;5.97;;;;;;;21.27;61.31;98373.22;5016132;28;20193;-62
2021/10/19 08:10:21;;;;;;;6.23;5.73;;;;;;;21.27;61.27;98368.09;5013116;28;20230;-62
2021/10/19 08:12:47;;;;;;;6.43;5.83;;;;;;;21.28;61.36;98364.72;5016002;28;20615;-62
2021/10/19 08:15:15;;;;;;;5.97;5.47;;;;;;;20.35;61.03;98198.69;5021807;28;20224;-62
2021/10/19 08:17:42;;;;;;;6.30;5.70;;;;;;;21.29;61.31;98363.06;5016576;28;20240;-62
2021/10/19 08:20:10;;;;;;;6.67;5.77;;;;;;;20.30;61.45;98206.16;5002944;28;20229;-62
2021/10/19 08:22:36;;;;;;;6.20;5.60;;;;;;;20.50;61.65;98236.00;5017332;28;20272;-62
2021/10/19 08:25:06;;;;;;;5.83;5.33;;;;;;;21.29;61.67;98374.13;5014426;28;20300;-62
2021/10/19 08:27:34;;;;;;;6.00;5.50;;;;;;;21.29;61.84;98379.25;5023010;28;20277;-62
2021/10/19 08:30:00;;;;;;;6.33;5.73;;;;;;;21.29;61.96;98386.06;5015171;28;20236;-62
2021/10/19 08:32:27;;;;;;;5.80;5.23;;;;;;;21.29;61.84;98384.38;5024225;28;20197;-62
2021/10/19 08:34:54;;;;;;;5.47;4.97;;;;;;;21.30;61.86;98385.25;5017289;28;20229;-62
2021/10/19 08:37:20;;;;;;;5.80;5.30;;;;;;;21.29;62.01;98384.38;5014201;28;20261;-62
2021/10/19 08:39:47;;;;;;;5.80;5.20;;;;;;;21.30;61.96;98375.03;5022284;28;20258;-62
2021/10/19 08:42:14;;;;;;;5.67;5.03;;;;;;;21.29;62.08;98384.38;5016814;28;20198;-62
2021/10/19 08:44:45;;;;;;;5.43;4.90;;;;;;;21.18;62.17;98372.81;5025354;28;20640;-63
2021/10/19 08:47:12;;;;;;;8.13;4.87;;;;;;;21.30;62.49;98385.25;5007979;28;20249;-62
2021/10/19 08:49:38;;;;;;;5.70;4.90;;;;;;;21.30;62.54;98375.91;5015327;28;20198;-63
2021/10/19 08:52:05;;;;;;;5.00;4.50;;;;;;;21.31;62.42;98371.66;5015648;28;20676;-63
2021/10/19 08:54:31;;;;;;;8.50;4.40;;;;;;;21.31;62.49;98379.31;5013829;28;20739;-62
2021/10/19 08:56:58;;;;;;;4.53;4.13;;;;;;;21.31;62.47;98382.75;5024751;28;20692;-62
2021/10/19 08:59:25;;;;;;;6.27;4.40;;;;;;;21.22;62.70;98354.25;5016571;28;20329;-62
2021/10/19 09:01:56;;;;;;;4.63;4.10;;;;;;;21.33;62.76;98372.59;5019783;28;20639;-61
2021/10/19 09:04:29;;;;;;;9.80;4.27;;;;;;;21.33;62.65;98367.47;5013575;28;20283;-62
2021/10/19 09:06:56;;;;;;;6.30;4.50;;;;;;;21.32;62.67;98374.28;5017715;28;20213;-62
2021/10/19 09:09:24;;;;;;;21.13;4.50;;;;;;;21.32;62.89;98376.81;5015612;28;20226;-62
2021/10/19 09:11:52;;;;;;;6.27;4.30;;;;;;;21.33;62.50;98373.47;5015559;28;20289;-63
2021/10/19 09:14:20;;;;;;;5.63;4.43;;;;;;;21.33;62.82;98370.94;5019014;28;20233;-62
2021/10/19 09:16:48;;;;;;;10.33;4.67;;;;;;;21.34;62.71;98375.22;5020177;28;20266;-62
2021/10/19 09:19:17;;;;;;;4.80;4.13;;;;;;;21.34;63.10;98371.78;5013417;28;20228;-62
2021/10/19 09:21:47;;;;;;;8.10;3.77;;;;;;;21.35;62.94;98376.09;5019123;28;20234;-62
2021/10/19 09:24:21;;;;;;;4.80;3.57;;;;;;;21.35;63.05;98373.53;5016919;28;20588;-62
2021/10/19 09:27:00;;;;;;;5.20;4.07;;;;;;;21.34;62.91;98376.88;5023516;28;20279;-63
2021/10/19 09:29:28;;;;;;;4.23;3.40;;;;;;;21.35;62.95;98378.66;5019185;28;20687;-62
2021/10/19 09:31:59;;;;;;;5.50;3.83;;;;;;;21.34;62.81;98371.78;5024339;28;20289;-62
2021/10/19 09:34:30;;;;;;;4.80;4.20;;;;;;;21.35;63.11;98371.00;5021289;28;20214;-63
2021/10/19 09:36:57;;;;;;;9.03;3.90;;;;;;;20.95;62.92;98312.13;5002273;28;20719;-62
2021/10/19 09:39:31;;;;;;;8.60;3.80;;;;;;;20.96;63.36;98306.22;5024161;28;20257;-63
2021/10/19 09:41:58;;;;;;;5.70;3.90;;;;;;;21.35;63.29;98365.88;5021300;28;20201;-62
2021/10/19 09:44:25;;;;;;;5.67;3.70;;;;;;;21.35;63.63;98364.16;5020907;28;20261;-62
2021/10/19 09:46:51;;;;;;;5.83;3.90;;;;;;;21.36;63.26;98365.06;5018465;28;20304;-62
2021/10/19 09:49:18;;;;;;;5.90;3.73;;;;;;;21.36;62.86;98371.06;4999425;28;20226;-62
2021/10/19 09:51:44;;;;;;;4.27;3.40;;;;;;;21.36;63.22;98376.16;5026771;28;20229;-63
2021/10/19 09:54:11;;;;;;;4.87;3.57;;;;;;;21.37;63.29;98379.59;4999729;28;20202;-62
2021/10/19 09:56:39;;;;;;;5.73;3.83;;;;;;;21.36;63.57;98383.84;5020434;28;20595;-62
2021/10/19 09:59:05;;;;;;;4.37;3.50;;;;;;;21.36;63.30;98381.28;5016397;28;20249;-62
2021/10/19 10:01:32;;;;;;;5.33;3.70;;;;;;;21.37;63.39;98364.25;5022467;28;20281;-62
2021/10/19 10:04:00;;;;;;;5.67;3.57;;;;;;;21.36;63.50;98358.28;5017418;28;20194;-62
2021/10/19 10:06:27;;;;;;;6.20;3.80;;;;;;;21.32;63.72;98352.97;5003476;28;20218;-62
2021/10/19 10:08:54;;;;;;;10.77;3.57;;;;;;;21.38;63.39;98366.00;5000706;28;20236;-62
2021/10/19 10:11:21;;;;;;;5.47;3.67;;;;;;;21.38;63.65;98389.88;4998501;28;20761;-62
2021/10/19 10:13:59;;;;;;;14.07;4.10;;;;;;;21.39;64.16;98414.66;5002101;28;20206;-62
2021/10/19 10:16:26;;;;;;;6.07;4.00;;;;;;;21.38;64.10;98392.44;5022926;28;20261;-62
2021/10/19 10:18:52;;;;;;;13.80;4.60;;;;;;;21.40;64.19;98397.63;5017420;28;20844;-62
2021/10/19 10:21:21;;;;;;;9.00;3.27;;;;;;;21.41;64.17;98387.44;5015977;28;20289;-62
2021/10/19 10:24:02;;;;;;;9.30;3.63;;;;;;;21.39;64.16;98366.06;5016199;28;20242;-63
2021/10/19 10:26:31;;;;;;;11.63;4.07;;;;;;;21.41;64.10;98333.75;5017105;28;20252;-63
2021/10/19 10:29:07;;;;;;;5.40;3.40;;;;;;;21.42;64.37;98326.97;5019263;28;20230;-63
2021/10/19 10:31:44;;;;;;;13.10;3.77;;;;;;;21.42;64.29;98373.88;5018214;28;20235;-62
2021/10/19 10:34:12;;;;;;;9.97;3.93;;;;;;;21.43;64.34;98342.38;5011243;28;20194;-63
2021/10/19 10:36:42;;;;;;;9.90;4.10;;;;;;;21.42;64.51;98332.97;5016385;28;20222;-62
2021/10/19 10:39:08;;;;;;;11.40;3.53;;;;;;;21.42;64.14;98279.25;5015184;28;20340;-62
2021/10/19 10:41:45;;;;;;;6.60;3.53;;;;;;;21.43;64.19;98308.25;5016450;28;20734;-62
2021/10/19 10:44:12;;;;;;;7.27;3.57;;;;;;;21.42;64.12;98345.75;4999658;28;20309;-62
2021/10/19 10:46:40;;;;;;;8.90;4.00;;;;;;;21.42;64.19;98343.19;5005740;28;20767;-62
2021/10/19 10:49:13;;;;;;;15.77;3.53;;;;;;;21.42;64.35;98332.97;4987027;28;20237;-62
2021/10/19 10:51:41;;;;;;;6.73;3.37;;;;;;;21.42;64.08;98321.84;5010356;28;20202;-62
2021/10/19 10:54:13;;;;;;;6.83;3.40;;;;;;;21.42;64.24;98325.28;5007199;28;21054;-63
2021/10/19 10:56:50;;;;;;;10.57;4.00;;;;;;;21.43;64.27;98315.91;5010784;28;20347;-63
2021/10/19 10:59:27;;;;;;;5.73;3.30;;;;;;;20.97;64.17;98244.09;4991442;28;20226;-62
2021/10/19 11:01:58;;;;;;;4.53;3.30;;;;;;;20.46;64.30;98154.09;5008764;28;20233;-62
2021/10/19 11:04:25;;;;;;;6.50;3.30;;;;;;;21.42;64.24;98332.06;4993089;28;20232;-62
2021/10/19 11:06:52;;;;;;;8.60;3.37;;;;;;;21.42;64.61;98319.28;5009991;28;20287;-62
2021/10/19 11:09:18;;;;;;;3.47;3.03;;;;;;;20.66;64.22;98189.88;5009794;28;20198;-62
2021/10/19 11:11:46;;;;;;;6.13;3.20;;;;;;;21.41;64.22;98330.34;5009396;28;20293;-62
2021/10/19 11:14:16;;;;;;;4.23;3.20;;;;;;;21.39;64.33;98322.59;5005089;28;20194;-63
2021/10/19 11:16:50;;;;;;;6.03;3.40;;;;;;;21.36;64.08;98322.47;5116858;22;20246;-61
2021/10/19 11:19:23;;;;;;;5.47;3.13;;;;;;;21.39;64.38;98312.38;4991975;28;20217;-61
2021/10/19 11:21:59;;;;;;;5.50;2.83;;;;;;;21.39;64.11;98321.72;5012419;28;20233;-61
2021/10/19 11:24:27;;;;;;;5.00;3.00;;;;;;;21.40;64.28;98314.13;5032963;28;20578;-61
2021/10/19 11:26:54;;;;;;;8.20;3.10;;;;;;;21.23;64.46;98297.16;5031789;28;20252;-60
2021/10/19 11:29:21;;;;;;;7.40;3.13;;;;;;;21.40;64.36;98318.34;4998105;28;20217;-62
2021/10/19 11:31:47;;;;;;;5.67;3.43;;;;;;;21.41;64.26;98318.41;5028998;28;20233;-62
2021/10/19 11:34:14;;;;;;;7.80;3.60;;;;;;;21.40;64.43;98309.00;5024808;28;20579;-61